sensor_id;sensor_type;location;lat;lon;timestamp;temperature;humidity
35373;DHT22;21476;51.652;7.852;2022-10-16T00:00:32;13.80;99.90
35373;DHT22;21476;51.652;7.852;2022-10-16T00:02:57;13.80;99.90
35373;DHT22;21476;51.652;7.852;2022-10-16T00:05:23;13.80;99.90
35373;DHT22;21476;51.652;7.852;2022-10-16T00:07:49;13.80;99.90
35373;DHT22;21476;51.652;7.852;2022-10-16T00:10:14;13.80;99.90
35373;DHT22;21476;51.652;7.852;2022-10-16T00:12:40;13.70;99.90
35373;DHT22;21476;51.652;7.852;2022-10-16T00:15:06;13.70;99.90
35373;DHT22;21476;51.652;7.852;2022-10-16T00:17:32;13.80;99.90
35373;DHT22;21476;51.652;7.852;2022-10-16T00:19:58;13.80;99.90
35373;DHT22;21476;51.652;7.852;2022-10-16T00:22:24;13.80;99.90
35373;DHT22;21476;51.652;7.852;2022-10-16T00:24:50;13.80;99.90
35373;DHT22;21476;51.652;7.852;2022-10-16T00:27:16;13.80;99.90
35373;DHT22;21476;51.652;7.852;2022-10-16T00:29:42;13.80;99.90
35373;DHT22;21476;51.652;7.852;2022-10-16T00:32:08;13.70;99.90
35373;DHT22;21476;51.652;7.852;2022-10-16T00:34:34;13.80;99.90
35373;DHT22;21476;51.652;7.852;2022-10-16T00:36:59;13.70;99.90
35373;DHT22;21476;51.652;7.852;2022-10-16T00:39:25;13.70;99.90
35373;DHT22;21476;51.652;7.852;2022-10-16T00:41:51;13.60;99.90
35373;DHT22;21476;51.652;7.852;2022-10-16T00:47:19;13.60;99.90
35373;DHT22;21476;51.652;7.852;2022-10-16T00:49:46;13.60;99.90
35373;DHT22;21476;51.652;7.852;2022-10-16T00:52:13;13.60;99.90
35373;DHT22;21476;51.652;7.852;2022-10-16T00:54:39;13.60;99.90
35373;DHT22;21476;51.652;7.852;2022-10-16T00:57:06;13.60;99.90
35373;DHT22;21476;51.652;7.852;2022-10-16T00:59:38;13.50;99.90
35373;DHT22;21476;51.652;7.852;2022-10-16T01:02:06;13.50;99.90
35373;DHT22;21476;51.652;7.852;2022-10-16T01:04:38;13.50;99.90
35373;DHT22;21476;51.652;7.852;2022-10-16T01:07:40;13.50;99.90
35373;DHT22;21476;51.652;7.852;2022-10-16T01:12:59;13.60;99.90
35373;DHT22;21476;51.652;7.852;2022-10-16T01:15:48;13.50;99.90
35373;DHT22;21476;51.652;7.852;2022-10-16T01:18:29;13.50;99.90
35373;DHT22;21476;51.652;7.852;2022-10-16T01:21:02;13.60;99.90
35373;DHT22;21476;51.652;7.852;2022-10-16T01:29:15;13.50;99.90
35373;DHT22;21476;51.652;7.852;2022-10-16T01:31:48;13.50;99.90
35373;DHT22;21476;51.652;7.852;2022-10-16T01:34:22;13.60;99.90
35373;DHT22;21476;51.652;7.852;2022-10-16T01:36:55;13.60;99.90
35373;DHT22;21476;51.652;7.852;2022-10-16T01:39:24;13.60;99.90
35373;DHT22;21476;51.652;7.852;2022-10-16T01:42:12;13.60;99.90
35373;DHT22;21476;51.652;7.852;2022-10-16T01:44:40;13.50;99.90
35373;DHT22;21476;51.652;7.852;2022-10-16T01:47:08;13.50;99.90
35373;DHT22;21476;51.652;7.852;2022-10-16T01:49:36;13.50;99.90
35373;DHT22;21476;51.652;7.852;2022-10-16T01:52:12;13.60;99.90
35373;DHT22;21476;51.652;7.852;2022-10-16T01:54:41;13.60;99.90
35373;DHT22;21476;51.652;7.852;2022-10-16T01:57:08;13.70;99.90
35373;DHT22;21476;51.652;7.852;2022-10-16T01:59:37;13.70;99.90
35373;DHT22;21476;51.652;7.852;2022-10-16T02:02:06;13.70;99.90
35373;DHT22;21476;51.652;7.852;2022-10-16T02:04:39;13.70;99.90
35373;DHT22;21476;51.652;7.852;2022-10-16T02:07:05;13.70;99.90
35373;DHT22;21476;51.652;7.852;2022-10-16T02:09:35;13.70;99.90
35373;DHT22;21476;51.652;7.852;2022-10-16T02:12:08;13.60;99.90
35373;DHT22;21476;51.652;7.852;2022-10-16T02:14:38;13.60;99.90
35373;DHT22;21476;51.652;7.852;2022-10-16T02:17:16;13.60;99.90
35373;DHT22;21476;51.652;7.852;2022-10-16T02:19:42;13.50;99.90
35373;DHT22;21476;51.652;7.852;2022-10-16T02:22:16;13.50;99.90
35373;DHT22;21476;51.652;7.852;2022-10-16T02:24:50;13.50;99.90
35373;DHT22;21476;51.652;7.852;2022-10-16T02:27:24;13.40;99.90
35373;DHT22;21476;51.652;7.852;2022-10-16T02:30:13;13.40;99.90
35373;DHT22;21476;51.652;7.852;2022-10-16T02:32:42;13.40;99.90
35373;DHT22;21476;51.652;7.852;2022-10-16T02:35:09;13.50;99.90
35373;DHT22;21476;51.652;7.852;2022-10-16T02:37:36;13.40;99.90
35373;DHT22;21476;51.652;7.852;2022-10-16T02:40:04;13.40;99.90
35373;DHT22;21476;51.652;7.852;2022-10-16T02:42:36;13.50;99.90
35373;DHT22;21476;51.652;7.852;2022-10-16T02:45:03;13.40;99.90
35373;DHT22;21476;51.652;7.852;2022-10-16T02:47:29;13.40;99.90
35373;DHT22;21476;51.652;7.852;2022-10-16T02:49:54;13.40;99.90
35373;DHT22;21476;51.652;7.852;2022-10-16T02:52:20;13.30;99.90
35373;DHT22;21476;51.652;7.852;2022-10-16T02:54:46;13.40;99.90
35373;DHT22;21476;51.652;7.852;2022-10-16T02:57:11;13.40;99.90
35373;DHT22;21476;51.652;7.852;2022-10-16T02:59:37;13.40;99.90
35373;DHT22;21476;51.652;7.852;2022-10-16T03:02:03;13.50;99.90
35373;DHT22;21476;51.652;7.852;2022-10-16T03:04:28;13.50;99.90
35373;DHT22;21476;51.652;7.852;2022-10-16T03:06:54;13.60;99.90
35373;DHT22;21476;51.652;7.852;2022-10-16T03:09:20;13.60;99.90
35373;DHT22;21476;51.652;7.852;2022-10-16T03:11:45;13.60;99.90
35373;DHT22;21476;51.652;7.852;2022-10-16T03:14:11;13.70;99.90
35373;DHT22;21476;51.652;7.852;2022-10-16T03:16:36;13.70;99.90
35373;DHT22;21476;51.652;7.852;2022-10-16T03:19:02;13.70;99.90
35373;DHT22;21476;51.652;7.852;2022-10-16T03:21:28;13.60;99.90
35373;DHT22;21476;51.652;7.852;2022-10-16T03:23:53;13.70;99.90
35373;DHT22;21476;51.652;7.852;2022-10-16T03:26:19;13.70;99.90
35373;DHT22;21476;51.652;7.852;2022-10-16T03:28:45;13.70;99.90
35373;DHT22;21476;51.652;7.852;2022-10-16T03:31:10;13.70;99.90
35373;DHT22;21476;51.652;7.852;2022-10-16T03:33:36;13.80;99.90
35373;DHT22;21476;51.652;7.852;2022-10-16T03:36:02;13.90;99.90
35373;DHT22;21476;51.652;7.852;2022-10-16T03:38:27;13.90;99.90
35373;DHT22;21476;51.652;7.852;2022-10-16T03:40:53;13.80;99.90
35373;DHT22;21476;51.652;7.852;2022-10-16T03:43:18;13.80;99.90
35373;DHT22;21476;51.652;7.852;2022-10-16T03:45:44;13.80;99.90
35373;DHT22;21476;51.652;7.852;2022-10-16T03:48:10;13.80;99.90
35373;DHT22;21476;51.652;7.852;2022-10-16T03:50:36;13.80;99.90
35373;DHT22;21476;51.652;7.852;2022-10-16T03:53:02;13.90;99.90
35373;DHT22;21476;51.652;7.852;2022-10-16T03:55:27;13.90;99.90
35373;DHT22;21476;51.652;7.852;2022-10-16T03:57:53;13.90;99.90
35373;DHT22;21476;51.652;7.852;2022-10-16T04:00:18;13.90;99.90
35373;DHT22;21476;51.652;7.852;2022-10-16T04:02:44;13.90;99.90
35373;DHT22;21476;51.652;7.852;2022-10-16T04:05:11;13.90;99.90
35373;DHT22;21476;51.652;7.852;2022-10-16T04:07:37;13.90;99.90
35373;DHT22;21476;51.652;7.852;2022-10-16T04:10:04;13.90;99.90
35373;DHT22;21476;51.652;7.852;2022-10-16T04:12:30;13.90;99.90
35373;DHT22;21476;51.652;7.852;2022-10-16T04:14:56;14.00;99.90
35373;DHT22;21476;51.652;7.852;2022-10-16T04:17:21;14.00;99.90
35373;DHT22;21476;51.652;7.852;2022-10-16T04:19:47;14.00;99.90
35373;DHT22;21476;51.652;7.852;2022-10-16T04:22:12;13.90;99.90
35373;DHT22;21476;51.652;7.852;2022-10-16T04:24:38;14.00;99.90
35373;DHT22;21476;51.652;7.852;2022-10-16T04:27:04;13.90;99.90
35373;DHT22;21476;51.652;7.852;2022-10-16T04:29:29;14.00;99.90
35373;DHT22;21476;51.652;7.852;2022-10-16T04:31:55;13.90;99.90
35373;DHT22;21476;51.652;7.852;2022-10-16T04:34:21;13.90;99.90
35373;DHT22;21476;51.652;7.852;2022-10-16T04:36:47;13.80;99.90
35373;DHT22;21476;51.652;7.852;2022-10-16T04:39:15;13.80;99.90
35373;DHT22;21476;51.652;7.852;2022-10-16T04:41:40;13.80;99.90
35373;DHT22;21476;51.652;7.852;2022-10-16T04:44:06;13.70;99.90
35373;DHT22;21476;51.652;7.852;2022-10-16T04:46:32;13.60;99.90
35373;DHT22;21476;51.652;7.852;2022-10-16T04:48:58;13.50;99.90
35373;DHT22;21476;51.652;7.852;2022-10-16T04:51:23;13.40;99.90
35373;DHT22;21476;51.652;7.852;2022-10-16T04:53:50;13.40;99.90
35373;DHT22;21476;51.652;7.852;2022-10-16T04:56:16;13.40;99.90
35373;DHT22;21476;51.652;7.852;2022-10-16T04:58:42;13.30;99.90
35373;DHT22;21476;51.652;7.852;2022-10-16T05:01:08;13.30;99.90
35373;DHT22;21476;51.652;7.852;2022-10-16T05:03:33;13.20;99.90
35373;DHT22;21476;51.652;7.852;2022-10-16T05:05:59;13.00;99.90
35373;DHT22;21476;51.652;7.852;2022-10-16T05:08:25;13.00;99.90
35373;DHT22;21476;51.652;7.852;2022-10-16T05:10:50;12.90;99.90
35373;DHT22;21476;51.652;7.852;2022-10-16T05:13:16;12.90;99.90
35373;DHT22;21476;51.652;7.852;2022-10-16T05:15:42;12.90;99.90
35373;DHT22;21476;51.652;7.852;2022-10-16T05:18:08;12.90;99.90
35373;DHT22;21476;51.652;7.852;2022-10-16T05:20:34;12.90;99.90
35373;DHT22;21476;51.652;7.852;2022-10-16T05:22:59;13.00;99.90
35373;DHT22;21476;51.652;7.852;2022-10-16T05:25:25;13.00;99.90
35373;DHT22;21476;51.652;7.852;2022-10-16T05:27:51;13.00;99.90
35373;DHT22;21476;51.652;7.852;2022-10-16T05:30:17;13.00;99.90
35373;DHT22;21476;51.652;7.852;2022-10-16T05:32:50;13.00;99.90
35373;DHT22;21476;51.652;7.852;2022-10-16T05:35:16;13.00;99.90
35373;DHT22;21476;51.652;7.852;2022-10-16T05:37:43;12.90;99.90
35373;DHT22;21476;51.652;7.852;2022-10-16T05:40:09;13.00;99.90
35373;DHT22;21476;51.652;7.852;2022-10-16T05:42:35;13.00;99.90
35373;DHT22;21476;51.652;7.852;2022-10-16T05:45:01;13.00;99.90
35373;DHT22;21476;51.652;7.852;2022-10-16T05:47:26;13.00;99.90
35373;DHT22;21476;51.652;7.852;2022-10-16T05:49:52;13.00;99.90
35373;DHT22;21476;51.652;7.852;2022-10-16T05:52:18;13.10;99.90
35373;DHT22;21476;51.652;7.852;2022-10-16T05:54:44;13.10;99.90
35373;DHT22;21476;51.652;7.852;2022-10-16T05:57:09;13.00;99.90
35373;DHT22;21476;51.652;7.852;2022-10-16T05:59:35;13.00;99.90
35373;DHT22;21476;51.652;7.852;2022-10-16T06:02:01;13.00;99.90
35373;DHT22;21476;51.652;7.852;2022-10-16T06:04:26;13.10;99.90
35373;DHT22;21476;51.652;7.852;2022-10-16T06:06:52;13.10;99.90
35373;DHT22;21476;51.652;7.852;2022-10-16T06:09:18;13.20;99.90
35373;DHT22;21476;51.652;7.852;2022-10-16T06:11:43;13.30;99.90
35373;DHT22;21476;51.652;7.852;2022-10-16T06:14:09;13.30;99.90
35373;DHT22;21476;51.652;7.852;2022-10-16T06:16:35;13.40;99.90
35373;DHT22;21476;51.652;7.852;2022-10-16T06:19:02;13.40;99.90
35373;DHT22;21476;51.652;7.852;2022-10-16T06:21:31;13.60;99.90
35373;DHT22;21476;51.652;7.852;2022-10-16T06:23:57;13.60;99.90
35373;DHT22;21476;51.652;7.852;2022-10-16T06:26:26;13.70;99.90
35373;DHT22;21476;51.652;7.852;2022-10-16T06:28:54;13.80;99.90
35373;DHT22;21476;51.652;7.852;2022-10-16T06:31:20;13.90;99.90
35373;DHT22;21476;51.652;7.852;2022-10-16T06:33:51;14.00;99.90
35373;DHT22;21476;51.652;7.852;2022-10-16T06:36:17;14.20;99.90
35373;DHT22;21476;51.652;7.852;2022-10-16T06:38:44;14.30;99.90
35373;DHT22;21476;51.652;7.852;2022-10-16T06:41:15;14.60;99.90
35373;DHT22;21476;51.652;7.852;2022-10-16T06:43:41;14.80;99.90
35373;DHT22;21476;51.652;7.852;2022-10-16T06:46:09;15.00;99.90
35373;DHT22;21476;51.652;7.852;2022-10-16T06:48:36;15.50;99.90
35373;DHT22;21476;51.652;7.852;2022-10-16T06:51:05;16.50;99.90
35373;DHT22;21476;51.652;7.852;2022-10-16T06:53:34;17.00;99.90
35373;DHT22;21476;51.652;7.852;2022-10-16T06:56:17;17.50;99.90
35373;DHT22;21476;51.652;7.852;2022-10-16T06:58:44;18.70;99.90
35373;DHT22;21476;51.652;7.852;2022-10-16T07:01:10;19.70;99.90
35373;DHT22;21476;51.652;7.852;2022-10-16T07:03:37;20.10;99.90
35373;DHT22;21476;51.652;7.852;2022-10-16T07:06:05;20.00;99.90
35373;DHT22;21476;51.652;7.852;2022-10-16T07:08:35;19.40;99.90
35373;DHT22;21476;51.652;7.852;2022-10-16T07:11:06;18.70;99.90
35373;DHT22;21476;51.652;7.852;2022-10-16T07:13:40;18.30;99.90
35373;DHT22;21476;51.652;7.852;2022-10-16T07:16:07;17.60;99.90
35373;DHT22;21476;51.652;7.852;2022-10-16T07:18:33;17.20;99.90
35373;DHT22;21476;51.652;7.852;2022-10-16T07:21:10;16.90;99.90
35373;DHT22;21476;51.652;7.852;2022-10-16T07:23:37;16.80;99.90
35373;DHT22;21476;51.652;7.852;2022-10-16T07:26:04;17.20;99.90
35373;DHT22;21476;51.652;7.852;2022-10-16T07:28:30;17.70;99.90
35373;DHT22;21476;51.652;7.852;2022-10-16T07:31:04;17.60;99.90
35373;DHT22;21476;51.652;7.852;2022-10-16T07:33:30;18.50;99.90
35373;DHT22;21476;51.652;7.852;2022-10-16T07:35:56;19.70;99.90
35373;DHT22;21476;51.652;7.852;2022-10-16T07:38:22;21.00;99.90
35373;DHT22;21476;51.652;7.852;2022-10-16T07:40:48;22.00;99.90
35373;DHT22;21476;51.652;7.852;2022-10-16T07:43:14;21.80;99.90
35373;DHT22;21476;51.652;7.852;2022-10-16T07:45:50;21.00;99.90
35373;DHT22;21476;51.652;7.852;2022-10-16T07:48:16;20.20;99.90
35373;DHT22;21476;51.652;7.852;2022-10-16T07:50:43;19.40;99.90
35373;DHT22;21476;51.652;7.852;2022-10-16T07:53:10;18.70;99.90
35373;DHT22;21476;51.652;7.852;2022-10-16T07:55:36;18.20;99.90
35373;DHT22;21476;51.652;7.852;2022-10-16T07:58:02;18.00;99.90
35373;DHT22;21476;51.652;7.852;2022-10-16T08:00:27;17.70;99.90
35373;DHT22;21476;51.652;7.852;2022-10-16T08:02:53;17.60;99.90
35373;DHT22;21476;51.652;7.852;2022-10-16T08:05:19;18.20;99.90
35373;DHT22;21476;51.652;7.852;2022-10-16T08:07:51;19.10;99.90
35373;DHT22;21476;51.652;7.852;2022-10-16T08:10:18;20.00;99.90
35373;DHT22;21476;51.652;7.852;2022-10-16T08:12:44;20.40;99.90
35373;DHT22;21476;51.652;7.852;2022-10-16T08:15:10;20.00;99.90
35373;DHT22;21476;51.652;7.852;2022-10-16T08:17:36;19.40;99.90
35373;DHT22;21476;51.652;7.852;2022-10-16T08:20:02;19.80;99.90
35373;DHT22;21476;51.652;7.852;2022-10-16T08:22:28;21.30;99.90
35373;DHT22;21476;51.652;7.852;2022-10-16T08:24:53;23.00;99.90
35373;DHT22;21476;51.652;7.852;2022-10-16T08:27:19;24.40;99.90
35373;DHT22;21476;51.652;7.852;2022-10-16T08:29:44;25.30;99.90
35373;DHT22;21476;51.652;7.852;2022-10-16T08:32:10;25.70;99.90
35373;DHT22;21476;51.652;7.852;2022-10-16T08:34:36;25.80;99.90
35373;DHT22;21476;51.652;7.852;2022-10-16T08:37:01;26.70;99.90
35373;DHT22;21476;51.652;7.852;2022-10-16T08:39:27;27.10;99.90
35373;DHT22;21476;51.652;7.852;2022-10-16T08:48:26;27.10;99.90
35373;DHT22;21476;51.652;7.852;2022-10-16T08:50:52;27.50;99.90
35373;DHT22;21476;51.652;7.852;2022-10-16T08:53:28;26.80;99.90
35373;DHT22;21476;51.652;7.852;2022-10-16T08:55:55;26.60;99.90
35373;DHT22;21476;51.652;7.852;2022-10-16T08:58:25;27.00;99.90
35373;DHT22;21476;51.652;7.852;2022-10-16T09:00:58;27.20;99.90
35373;DHT22;21476;51.652;7.852;2022-10-16T09:03:42;27.20;99.90
35373;DHT22;21476;51.652;7.852;2022-10-16T09:11:41;26.20;99.90
35373;DHT22;21476;51.652;7.852;2022-10-16T09:17:26;25.50;99.90
35373;DHT22;21476;51.652;7.852;2022-10-16T09:20:03;25.40;99.90
35373;DHT22;21476;51.652;7.852;2022-10-16T09:22:33;25.10;99.90
35373;DHT22;21476;51.652;7.852;2022-10-16T09:25:12;24.60;99.90
35373;DHT22;21476;51.652;7.852;2022-10-16T09:27:38;24.80;99.90
35373;DHT22;21476;51.652;7.852;2022-10-16T09:30:12;25.30;99.90
35373;DHT22;21476;51.652;7.852;2022-10-16T09:32:39;25.50;99.90
35373;DHT22;21476;51.652;7.852;2022-10-16T09:35:13;25.60;99.90
35373;DHT22;21476;51.652;7.852;2022-10-16T09:37:41;25.20;99.90
35373;DHT22;21476;51.652;7.852;2022-10-16T09:40:25;25.20;99.90
35373;DHT22;21476;51.652;7.852;2022-10-16T09:45:31;24.90;99.90
35373;DHT22;21476;51.652;7.852;2022-10-16T09:47:56;24.10;99.90
35373;DHT22;21476;51.652;7.852;2022-10-16T09:50:28;23.60;99.90
35373;DHT22;21476;51.652;7.852;2022-10-16T09:53:13;22.80;99.90
35373;DHT22;21476;51.652;7.852;2022-10-16T09:55:50;22.20;99.90
35373;DHT22;21476;51.652;7.852;2022-10-16T09:58:16;21.90;99.90
35373;DHT22;21476;51.652;7.852;2022-10-16T10:00:49;21.70;99.90
35373;DHT22;21476;51.652;7.852;2022-10-16T10:03:35;21.70;99.90
35373;DHT22;21476;51.652;7.852;2022-10-16T10:06:27;21.60;99.90
35373;DHT22;21476;51.652;7.852;2022-10-16T10:09:19;21.60;99.90
35373;DHT22;21476;51.652;7.852;2022-10-16T10:11:56;21.60;99.90
35373;DHT22;21476;51.652;7.852;2022-10-16T10:14:58;21.60;99.90
35373;DHT22;21476;51.652;7.852;2022-10-16T10:17:29;21.70;99.90
35373;DHT22;21476;51.652;7.852;2022-10-16T10:20:00;21.80;99.90
35373;DHT22;21476;51.652;7.852;2022-10-16T10:22:40;21.90;99.90
35373;DHT22;21476;51.652;7.852;2022-10-16T10:30:44;22.00;99.90
35373;DHT22;21476;51.652;7.852;2022-10-16T10:44:04;20.50;99.90
35373;DHT22;21476;51.652;7.852;2022-10-16T10:46:39;20.50;99.90
35373;DHT22;21476;51.652;7.852;2022-10-16T11:06:22;21.30;99.90
35373;DHT22;21476;51.652;7.852;2022-10-16T11:09:24;21.50;99.90
35373;DHT22;21476;51.652;7.852;2022-10-16T11:12:19;21.70;99.90
35373;DHT22;21476;51.652;7.852;2022-10-16T11:15:07;22.10;99.90
35373;DHT22;21476;51.652;7.852;2022-10-16T11:17:55;22.20;99.90
35373;DHT22;21476;51.652;7.852;2022-10-16T11:20:30;22.30;99.90
35373;DHT22;21476;51.652;7.852;2022-10-16T11:25:45;22.10;99.90
35373;DHT22;21476;51.652;7.852;2022-10-16T11:28:37;21.90;99.90
35373;DHT22;21476;51.652;7.852;2022-10-16T11:31:14;22.00;99.90
35373;DHT22;21476;51.652;7.852;2022-10-16T11:33:46;22.00;99.90
35373;DHT22;21476;51.652;7.852;2022-10-16T11:36:38;22.00;99.90
35373;DHT22;21476;51.652;7.852;2022-10-16T11:39:20;22.10;99.90
35373;DHT22;21476;51.652;7.852;2022-10-16T11:41:53;22.00;99.90
35373;DHT22;21476;51.652;7.852;2022-10-16T11:44:36;21.90;99.90
35373;DHT22;21476;51.652;7.852;2022-10-16T11:47:12;22.20;99.90
35373;DHT22;21476;51.652;7.852;2022-10-16T11:49:41;22.30;99.90
35373;DHT22;21476;51.652;7.852;2022-10-16T11:52:52;22.40;99.90
35373;DHT22;21476;51.652;7.852;2022-10-16T11:55:15;22.60;99.90
35373;DHT22;21476;51.652;7.852;2022-10-16T11:58:12;22.40;99.90
35373;DHT22;21476;51.652;7.852;2022-10-16T12:00:51;22.20;99.90
35373;DHT22;21476;51.652;7.852;2022-10-16T12:03:33;22.30;99.90
35373;DHT22;21476;51.652;7.852;2022-10-16T12:06:15;22.40;99.90
35373;DHT22;21476;51.652;7.852;2022-10-16T12:08:45;22.40;99.90
35373;DHT22;21476;51.652;7.852;2022-10-16T12:13:47;22.30;99.90
35373;DHT22;21476;51.652;7.852;2022-10-16T12:18:40;22.00;99.90
35373;DHT22;21476;51.652;7.852;2022-10-16T12:21:06;22.00;99.90
35373;DHT22;21476;51.652;7.852;2022-10-16T12:23:37;21.60;99.90
35373;DHT22;21476;51.652;7.852;2022-10-16T12:26:04;21.50;99.90
35373;DHT22;21476;51.652;7.852;2022-10-16T12:28:32;21.60;99.90
35373;DHT22;21476;51.652;7.852;2022-10-16T12:31:06;22.00;99.90
35373;DHT22;21476;51.652;7.852;2022-10-16T12:33:57;22.10;99.90
35373;DHT22;21476;51.652;7.852;2022-10-16T12:36:32;22.30;99.90
35373;DHT22;21476;51.652;7.852;2022-10-16T12:38:59;22.20;99.90
35373;DHT22;21476;51.652;7.852;2022-10-16T12:41:28;22.20;99.90
35373;DHT22;21476;51.652;7.852;2022-10-16T12:43:54;22.10;99.90
35373;DHT22;21476;51.652;7.852;2022-10-16T12:46:23;22.00;99.90
35373;DHT22;21476;51.652;7.852;2022-10-16T12:48:49;21.90;99.90
35373;DHT22;21476;51.652;7.852;2022-10-16T12:51:33;21.90;99.90
35373;DHT22;21476;51.652;7.852;2022-10-16T12:59:26;21.60;99.90
35373;DHT22;21476;51.652;7.852;2022-10-16T13:02:05;21.60;99.90
35373;DHT22;21476;51.652;7.852;2022-10-16T13:10:39;21.70;99.90
35373;DHT22;21476;51.652;7.852;2022-10-16T13:18:22;21.40;99.90
35373;DHT22;21476;51.652;7.852;2022-10-16T13:21:17;21.10;99.90
35373;DHT22;21476;51.652;7.852;2022-10-16T13:26:42;20.60;99.90
35373;DHT22;21476;51.652;7.852;2022-10-16T13:29:10;20.60;99.90
35373;DHT22;21476;51.652;7.852;2022-10-16T13:31:37;20.70;99.90
35373;DHT22;21476;51.652;7.852;2022-10-16T13:34:05;20.70;99.90
35373;DHT22;21476;51.652;7.852;2022-10-16T13:36:44;20.80;99.90
35373;DHT22;21476;51.652;7.852;2022-10-16T13:39:26;20.80;99.90
35373;DHT22;21476;51.652;7.852;2022-10-16T13:44:49;20.70;99.90
35373;DHT22;21476;51.652;7.852;2022-10-16T13:47:24;20.60;99.90
35373;DHT22;21476;51.652;7.852;2022-10-16T13:50:05;20.60;99.90
35373;DHT22;21476;51.652;7.852;2022-10-16T13:52:31;20.40;99.90
35373;DHT22;21476;51.652;7.852;2022-10-16T13:54:57;20.40;99.90
35373;DHT22;21476;51.652;7.852;2022-10-16T13:57:24;20.40;99.90
35373;DHT22;21476;51.652;7.852;2022-10-16T13:59:50;20.30;99.90
35373;DHT22;21476;51.652;7.852;2022-10-16T14:02:26;20.20;99.90
35373;DHT22;21476;51.652;7.852;2022-10-16T14:04:53;20.20;99.90
35373;DHT22;21476;51.652;7.852;2022-10-16T14:07:31;20.30;99.90
35373;DHT22;21476;51.652;7.852;2022-10-16T14:10:22;20.10;99.90
35373;DHT22;21476;51.652;7.852;2022-10-16T14:13:13;19.90;99.90
35373;DHT22;21476;51.652;7.852;2022-10-16T14:15:39;19.80;99.90
35373;DHT22;21476;51.652;7.852;2022-10-16T14:18:05;19.60;99.90
35373;DHT22;21476;51.652;7.852;2022-10-16T14:20:32;19.60;99.90
35373;DHT22;21476;51.652;7.852;2022-10-16T14:23:04;19.50;99.90
35373;DHT22;21476;51.652;7.852;2022-10-16T14:25:43;19.40;99.90
35373;DHT22;21476;51.652;7.852;2022-10-16T14:28:22;19.30;99.90
35373;DHT22;21476;51.652;7.852;2022-10-16T14:30:56;19.20;99.90
35373;DHT22;21476;51.652;7.852;2022-10-16T14:38:31;19.20;99.90
35373;DHT22;21476;51.652;7.852;2022-10-16T14:40:59;19.20;99.90
35373;DHT22;21476;51.652;7.852;2022-10-16T14:43:38;19.20;99.90
35373;DHT22;21476;51.652;7.852;2022-10-16T14:46:14;19.30;99.90
35373;DHT22;21476;51.652;7.852;2022-10-16T14:48:50;19.30;99.90
35373;DHT22;21476;51.652;7.852;2022-10-16T14:51:18;19.30;99.90
35373;DHT22;21476;51.652;7.852;2022-10-16T14:53:44;19.30;99.90
35373;DHT22;21476;51.652;7.852;2022-10-16T14:56:19;19.30;99.90
35373;DHT22;21476;51.652;7.852;2022-10-16T14:58:45;19.10;99.90
35373;DHT22;21476;51.652;7.852;2022-10-16T15:01:11;19.00;99.90
35373;DHT22;21476;51.652;7.852;2022-10-16T15:03:38;18.90;99.90
35373;DHT22;21476;51.652;7.852;2022-10-16T15:06:04;18.80;99.90
35373;DHT22;21476;51.652;7.852;2022-10-16T15:08:34;18.70;99.90
35373;DHT22;21476;51.652;7.852;2022-10-16T15:11:00;18.60;99.90
35373;DHT22;21476;51.652;7.852;2022-10-16T15:13:26;18.50;99.90
35373;DHT22;21476;51.652;7.852;2022-10-16T15:15:53;18.50;99.90
35373;DHT22;21476;51.652;7.852;2022-10-16T15:18:18;18.40;99.90
35373;DHT22;21476;51.652;7.852;2022-10-16T15:20:49;18.50;99.90
35373;DHT22;21476;51.652;7.852;2022-10-16T15:23:18;18.50;99.90
35373;DHT22;21476;51.652;7.852;2022-10-16T15:25:46;18.60;99.90
35373;DHT22;21476;51.652;7.852;2022-10-16T15:28:12;18.60;99.90
35373;DHT22;21476;51.652;7.852;2022-10-16T15:30:39;18.70;99.90
35373;DHT22;21476;51.652;7.852;2022-10-16T15:33:08;18.60;99.90
35373;DHT22;21476;51.652;7.852;2022-10-16T15:35:36;18.60;99.90
35373;DHT22;21476;51.652;7.852;2022-10-16T15:38:02;18.60;99.90
35373;DHT22;21476;51.652;7.852;2022-10-16T15:40:27;18.60;99.90
35373;DHT22;21476;51.652;7.852;2022-10-16T15:42:53;18.50;99.90
35373;DHT22;21476;51.652;7.852;2022-10-16T15:45:18;18.50;99.90
35373;DHT22;21476;51.652;7.852;2022-10-16T15:47:45;18.30;99.90
35373;DHT22;21476;51.652;7.852;2022-10-16T15:50:12;18.10;99.90
35373;DHT22;21476;51.652;7.852;2022-10-16T15:52:39;18.10;99.90
35373;DHT22;21476;51.652;7.852;2022-10-16T15:55:10;17.80;99.90
35373;DHT22;21476;51.652;7.852;2022-10-16T15:57:37;17.70;99.90
35373;DHT22;21476;51.652;7.852;2022-10-16T16:00:06;17.70;99.90
35373;DHT22;21476;51.652;7.852;2022-10-16T16:02:32;17.70;99.90
35373;DHT22;21476;51.652;7.852;2022-10-16T16:04:58;17.60;99.90
35373;DHT22;21476;51.652;7.852;2022-10-16T16:07:24;17.60;99.90
35373;DHT22;21476;51.652;7.852;2022-10-16T16:09:49;17.50;99.90
35373;DHT22;21476;51.652;7.852;2022-10-16T16:12:15;17.40;99.90
35373;DHT22;21476;51.652;7.852;2022-10-16T16:14:41;17.40;99.90
35373;DHT22;21476;51.652;7.852;2022-10-16T16:17:06;17.40;99.90
35373;DHT22;21476;51.652;7.852;2022-10-16T16:19:33;17.40;99.90
35373;DHT22;21476;51.652;7.852;2022-10-16T16:21:58;17.40;99.90
35373;DHT22;21476;51.652;7.852;2022-10-16T16:24:24;17.30;99.90
35373;DHT22;21476;51.652;7.852;2022-10-16T16:26:50;17.30;99.90
35373;DHT22;21476;51.652;7.852;2022-10-16T16:29:16;17.30;99.90
35373;DHT22;21476;51.652;7.852;2022-10-16T16:31:42;17.30;99.90
35373;DHT22;21476;51.652;7.852;2022-10-16T16:34:08;17.20;99.90
35373;DHT22;21476;51.652;7.852;2022-10-16T16:36:34;17.30;99.90
35373;DHT22;21476;51.652;7.852;2022-10-16T16:39:00;17.30;99.90
35373;DHT22;21476;51.652;7.852;2022-10-16T16:41:28;17.30;99.90
35373;DHT22;21476;51.652;7.852;2022-10-16T16:43:54;17.20;99.90
35373;DHT22;21476;51.652;7.852;2022-10-16T16:46:21;17.30;99.90
35373;DHT22;21476;51.652;7.852;2022-10-16T16:48:47;17.20;99.90
35373;DHT22;21476;51.652;7.852;2022-10-16T16:51:16;17.10;99.90
35373;DHT22;21476;51.652;7.852;2022-10-16T16:53:46;17.00;99.90
35373;DHT22;21476;51.652;7.852;2022-10-16T16:56:13;16.90;99.90
35373;DHT22;21476;51.652;7.852;2022-10-16T16:58:39;16.80;99.90
35373;DHT22;21476;51.652;7.852;2022-10-16T17:01:05;16.80;99.90
35373;DHT22;21476;51.652;7.852;2022-10-16T17:03:32;16.80;99.90
35373;DHT22;21476;51.652;7.852;2022-10-16T17:06:08;16.70;99.90
35373;DHT22;21476;51.652;7.852;2022-10-16T17:08:35;16.70;99.90
35373;DHT22;21476;51.652;7.852;2022-10-16T17:11:01;16.70;99.90
35373;DHT22;21476;51.652;7.852;2022-10-16T17:13:29;16.60;99.90
35373;DHT22;21476;51.652;7.852;2022-10-16T17:15:56;16.50;99.90
35373;DHT22;21476;51.652;7.852;2022-10-16T17:18:23;16.40;99.90
35373;DHT22;21476;51.652;7.852;2022-10-16T17:20:49;16.50;99.90
35373;DHT22;21476;51.652;7.852;2022-10-16T17:23:16;16.50;99.90